Harbor Isle, New York
Current Conditions -  °F | °C
As of 10:51 AM on Friday 19 Dec 2014 (Local Time) from KJFK Reporting Station
Broken Clouds Broken Clouds  
Wind Chill: -2°   Ceiling: 3700
Heat Index:   Visibility: 10mi
Dew Point: -7°   Wind: 17mph
Humidity: 48%   Direction: 330°NNW
Pressure: 30.06"   Gusts: 24mph
Location:  40.6062°N, 73.6508°W
Report Text: KJFK 191551Z 33015G21KT 10SM BKN037 03/M07 A3006 RMK AO2 SLP178 T00331067
Loading
Personal Weather Stations






























Interactive Weather Map New forecast layout! Learn more

10-Day Weather Forecast

Advertisements
Track Severe Weather on mobile